FAR weather

Hector International Airport
Fargo, North Dakota, United States

Public forecast

Using degrees Fahrenheit for public forecast. Weather courtesy of forecast.io.

Current aviation weather report (METAR) for Hector International Airport

Retrieved 2020/07/04 23:53 UTC (36 minutes ago):

KFAR 042353Z AUTO 16006KT 10SM CLR 29/21 A2993 RMK AO2 SLP130 T02890206 10317 20289 58018

Aviation forecast (TAF) for Hector International Airport

Retrieved 2020-07-05 00:42 UTC (0 seconds ago):

TAF KFAR 042341Z 0500/0524 15008KT P6SM VCTS SCT040CB BKN200 TEMPO 0501/0503 6SM TSRA BKN040CB FM050400 15008KT P6SM SCT070 BKN250 FM051500 22008KT P6SM VCTS SCT060CB BKN200 FM052100 19008KT P6SM FEW060 BKN150